East Harwich, Massachusetts
Current Conditions -  °F | °C
As of 2:52 AM on Saturday 25 Oct 2014 (Local Time) from KCQX Reporting Station
Overcast Overcast  
Wind Chill: 50°   Ceiling: 1900
Heat Index: 50°   Visibility: 10mi
Dew Point: 46°   Wind: 6mph
Humidity: 86%   Direction: 320°NW
Pressure: 29.74"   Gusts: NA
Location:  41.7026°N, 70.0637°W
Report Text: KCQX 250652Z AUTO 32005KT 10SM OVC019 10/08 A2974 RMK AO2 SLP070 T01000078
Loading
Personal Weather Stations






























Interactive Weather Map
Tropical Storm Tracking
New forecast layout! Learn more

10-Day Weather Forecast

Advertisements
Track Severe Weather on mobile